Saint John, Missouri
Current Conditions -  °F | °C
As of 5:15 AM on Friday 24 Oct 2014 (Local Time) from KSTL Reporting Station
Broken Clouds Broken Clouds  
Wind Chill: 54°   Ceiling: 5000
Heat Index: 54°   Visibility: 10mi
Dew Point: 48°   Wind: 0mph
Humidity: 82%   Direction: NA
Pressure: 30.1"   Gusts: NA
Location:  38.702°N, 90.3628°W
Report Text: KSTL 241015Z 00000KT 10SM FEW019 SCT030 BKN050 12/09 A3010 RMK AO2
Loading
Personal Weather Stations






























Interactive Weather Map
Tropical Storm Tracking
New forecast layout! Learn more

10-Day Weather Forecast

Advertisements
Track Severe Weather on mobile